Time;durP1;ratioP1;P1;durP2;ratioP2;P2;SDS_P1;SDS_P2;PMS_P1;PMS_P2;Temp;Humidity;BMP_temperature;BMP_pressure;BME280_temperature;BME280_humidity;BME280_pressure;Samples;Min_cycle;Max_cycle;Signal;HPM_P1;HPM_P2
2022/12/01 00:00:32;;;;;;;34.47;15.77;;;;;;;5.17;100.00;102616.28;5048751;28;20095;-69
2022/12/01 00:02:57;;;;;;;32.55;15.77;;;;;;;5.17;100.00;102611.00;5048313;28;20650;-69
2022/12/01 00:05:23;;;;;;;33.13;15.65;;;;;;;5.17;100.00;102614.47;5050459;28;20029;-69
2022/12/01 00:07:48;;;;;;;32.90;16.65;;;;;;;5.20;100.00;102618.69;5052343;28;20131;-69
2022/12/01 00:10:26;;;;;;;35.55;16.95;;;;;;;5.18;100.00;102618.78;5052546;28;20025;-69
2022/12/01 00:12:56;;;;;;;35.00;15.30;;;;;;;5.14;100.00;102625.28;5052177;28;20061;-69
2022/12/01 00:15:24;;;;;;;42.42;18.15;;;;;;;5.13;100.00;102618.31;5052449;28;20566;-69
2022/12/01 00:17:50;;;;;;;41.70;18.92;;;;;;;5.08;100.00;102617.81;5052536;28;20060;-69
2022/12/01 00:20:16;;;;;;;41.85;16.27;;;;;;;5.08;100.00;102616.97;5052309;28;20123;-69
2022/12/01 00:22:43;;;;;;;43.35;19.20;;;;;;;5.07;100.00;102610.84;5052367;28;20020;-69
2022/12/01 00:25:08;;;;;;;38.20;15.70;;;;;;;5.02;100.00;102608.53;5052223;28;20403;-69
2022/12/01 00:27:33;;;;;;;44.42;18.85;;;;;;;4.98;100.00;102617.69;5050890;28;20029;-69
2022/12/01 00:29:59;;;;;;;39.30;18.48;;;;;;;4.91;100.00;102603.25;5052279;28;20123;-69
2022/12/01 00:32:24;;;;;;;41.40;18.25;;;;;;;4.89;100.00;102601.66;5052343;28;20083;-69
2022/12/01 00:34:49;;;;;;;48.10;17.67;;;;;;;4.95;100.00;102610.00;5052145;28;20032;-69
2022/12/01 00:37:15;;;;;;;38.85;16.88;;;;;;;4.88;100.00;102598.19;5052124;28;20044;-69
2022/12/01 00:39:40;;;;;;;45.97;18.70;;;;;;;4.91;100.00;102607.69;5050748;28;20043;-69
2022/12/01 00:42:05;;;;;;;42.17;21.38;;;;;;;4.90;100.00;102612.13;5050465;28;20884;-69
2022/12/01 00:44:31;;;;;;;44.83;20.90;;;;;;;4.91;100.00;102608.53;5051754;28;20047;-69
2022/12/01 00:46:56;;;;;;;39.53;18.92;;;;;;;4.93;100.00;102611.91;5050370;28;20040;-69
2022/12/01 00:49:21;;;;;;;40.65;17.42;;;;;;;4.91;100.00;102616.47;5051664;28;20055;-69
2022/12/01 00:51:47;;;;;;;41.95;18.73;;;;;;;4.90;100.00;102614.78;5051822;28;20033;-69
2022/12/01 00:54:12;;;;;;;46.03;19.08;;;;;;;4.88;100.00;102603.47;5051679;28;20536;-69
2022/12/01 00:56:38;;;;;;;44.47;19.70;;;;;;;4.89;100.00;102602.50;5051655;28;20496;-69
2022/12/01 00:59:03;;;;;;;42.05;18.13;;;;;;;4.93;100.00;102611.06;5051769;28;20025;-69
2022/12/01 01:01:28;;;;;;;43.28;18.55;;;;;;;4.84;100.00;102599.38;5051556;28;20048;-69
2022/12/01 01:03:54;;;;;;;42.03;20.00;;;;;;;4.90;100.00;102604.22;5051301;28;20032;-69
2022/12/01 01:06:19;;;;;;;41.40;17.35;;;;;;;4.93;100.00;102609.25;5051222;28;20135;-69
2022/12/01 01:08:45;;;;;;;38.15;20.45;;;;;;;4.89;100.00;102609.59;5051599;28;20048;-69
2022/12/01 01:11:10;;;;;;;39.13;18.45;;;;;;;4.90;100.00;102605.97;5051483;28;20037;-70
2022/12/01 01:13:35;;;;;;;44.08;21.25;;;;;;;4.93;100.00;102616.34;5050132;28;20117;-69
2022/12/01 01:16:28;;;;;;;42.47;17.73;;;;;;;4.95;100.00;102619.69;5050963;28;20025;-69
2022/12/01 01:18:54;;;;;;;44.90;18.30;;;;;;;4.94;100.00;102623.31;5048631;28;20036;-69
2022/12/01 01:21:20;;;;;;;41.88;19.27;;;;;;;4.93;100.00;102625.13;5051321;28;20027;-69
2022/12/01 01:23:47;;;;;;;41.55;19.52;;;;;;;4.91;100.00;102619.09;5051018;28;20029;-69
2022/12/01 01:26:19;;;;;;;47.55;20.25;;;;;;;4.84;100.00;102616.06;5050980;28;20049;-69
2022/12/01 01:28:47;;;;;;;42.55;16.55;;;;;;;4.87;100.00;102624.72;5051034;28;20446;-69
2022/12/01 01:31:15;;;;;;;45.15;20.65;;;;;;;4.87;100.00;102619.44;5050737;28;20107;-69
2022/12/01 01:33:41;;;;;;;39.08;16.67;;;;;;;4.93;100.00;102634.88;5050798;28;20099;-69
2022/12/01 01:36:07;;;;;;;44.40;19.98;;;;;;;4.87;100.00;102628.22;5049780;28;20032;-69
2022/12/01 01:38:33;;;;;;;43.50;22.33;;;;;;;4.89;100.00;102638.69;5050889;28;20021;-69
2022/12/01 01:40:59;;;;;;;45.85;17.67;;;;;;;4.88;100.00;102634.38;5051004;28;20032;-69
2022/12/01 01:43:41;;;;;;;41.58;16.92;;;;;;;4.88;100.00;102645.78;5050661;28;20028;-69
2022/12/01 01:46:09;;;;;;;40.13;17.85;;;;;;;4.90;100.00;102640.34;5050117;28;20523;-69
2022/12/01 01:48:36;;;;;;;44.20;16.58;;;;;;;4.89;100.00;102641.31;5050508;28;20484;-69
2022/12/01 01:51:02;;;;;;;45.70;18.58;;;;;;;4.89;100.00;102641.31;5050788;28;20029;-69
2022/12/01 01:53:28;;;;;;;44.58;18.85;;;;;;;4.91;100.00;102642.91;5050705;28;20025;-69
2022/12/01 01:55:53;;;;;;;41.53;18.85;;;;;;;4.90;100.00;102641.22;5050703;28;20418;-69
2022/12/01 01:58:19;;;;;;;47.08;21.55;;;;;;;4.90;100.00;102629.78;5050560;28;20029;-69
2022/12/01 02:00:45;;;;;;;43.70;18.63;;;;;;;4.90;100.00;102629.78;5050525;28;20033;-69
2022/12/01 02:03:14;;;;;;;43.38;19.30;;;;;;;4.90;100.00;102633.28;5050484;28;20495;-69
2022/12/01 02:05:41;;;;;;;46.38;18.45;;;;;;;4.91;100.00;102634.13;5049968;28;20031;-69
2022/12/01 02:08:11;;;;;;;48.03;17.88;;;;;;;4.89;100.00;102634.22;5050049;28;20480;-69
2022/12/01 02:10:45;;;;;;;38.17;18.92;;;;;;;4.90;100.00;102635.06;5050061;28;20082;-69
2022/12/01 02:13:36;;;;;;;37.38;15.85;;;;;;;4.90;100.00;102638.56;5050278;28;20029;-69
2022/12/01 02:16:28;;;;;;;43.03;19.10;;;;;;;4.84;100.00;102621.34;5050304;28;20025;-69
2022/12/01 02:19:06;;;;;;;33.63;16.85;;;;;;;4.89;100.00;102625.47;5050236;28;20080;-69
2022/12/01 02:21:48;;;;;;;40.35;17.35;;;;;;;4.90;100.00;102637.72;5050091;28;21010;-69
2022/12/01 02:24:41;;;;;;;39.55;19.20;;;;;;;4.89;100.00;102633.41;5050216;28;20453;-69
2022/12/01 02:27:22;;;;;;;44.25;20.45;;;;;;;4.89;100.00;102636.03;5048713;28;20051;-70
2022/12/01 02:30:12;;;;;;;35.30;14.20;;;;;;;4.89;100.00;102630.75;5050010;28;20039;-69
2022/12/01 02:33:02;;;;;;;42.22;16.98;;;;;;;4.90;100.00;102637.72;5050010;28;20053;-69
2022/12/01 02:35:49;;;;;;;43.25;18.38;;;;;;;4.90;100.00;102635.06;5049990;28;20063;-69
2022/12/01 02:38:29;;;;;;;36.05;16.20;;;;;;;4.89;100.00;102630.75;5049810;28;20115;-69
2022/12/01 02:41:06;;;;;;;42.10;17.40;;;;;;;4.91;100.00;102639.41;5049885;28;20346;-69
2022/12/01 02:43:41;;;;;;;39.67;16.80;;;;;;;4.88;100.00;102635.19;5049614;28;20032;-69
2022/12/01 02:46:35;;;;;;;40.08;18.17;;;;;;;4.93;100.00;102642.78;5049446;28;20956;-69
2022/12/01 02:49:08;;;;;;;39.58;16.55;;;;;;;4.84;100.00;102637.22;5049571;28;20013;-69
2022/12/01 02:51:38;;;;;;;40.38;16.73;;;;;;;4.92;100.00;102643.72;5049730;28;20097;-69
2022/12/01 02:54:04;;;;;;;39.42;17.17;;;;;;;4.91;100.00;102639.41;5049617;28;20036;-69
2022/12/01 02:56:30;;;;;;;35.72;17.08;;;;;;;4.88;100.00;102631.72;5049694;28;20083;-70
2022/12/01 02:58:55;;;;;;;41.83;18.20;;;;;;;4.92;100.00;102641.94;5048301;28;20067;-70
2022/12/01 03:01:33;;;;;;;38.92;17.85;;;;;;;4.91;100.00;102644.69;5048238;28;20501;-70
2022/12/01 03:03:58;;;;;;;38.15;18.05;;;;;;;4.91;100.00;102642.91;5049181;28;20053;-70
2022/12/01 03:06:35;;;;;;;40.35;18.42;;;;;;;4.91;100.00;102642.91;5049492;28;20072;-70
2022/12/01 03:09:19;;;;;;;36.78;17.75;;;;;;;4.91;100.00;102642.91;5049735;28;20479;-70
2022/12/01 03:11:59;;;;;;;43.25;21.85;;;;;;;4.90;100.00;102637.72;5049582;28;20072;-70
2022/12/01 03:14:38;;;;;;;43.15;19.73;;;;;;;4.91;100.00;102640.25;5048148;28;20029;-70
2022/12/01 03:17:07;;;;;;;45.60;19.88;;;;;;;4.90;100.00;102643.88;5049495;28;20070;-70
2022/12/01 03:19:35;;;;;;;40.47;17.77;;;;;;;4.91;100.00;102640.25;5049371;28;20461;-70
2022/12/01 03:22:09;;;;;;;45.67;19.88;;;;;;;4.89;100.00;102644.81;5049469;28;20032;-70
2022/12/01 03:24:36;;;;;;;33.53;17.75;;;;;;;4.89;100.00;102639.53;5049391;28;20068;-70
2022/12/01 03:27:04;;;;;;;40.22;18.20;;;;;;;4.87;100.00;102636.13;5049252;28;20121;-70
2022/12/01 03:29:37;;;;;;;39.33;17.13;;;;;;;4.88;100.00;102634.38;5049322;28;20045;-70
2022/12/01 03:32:11;;;;;;;37.90;15.55;;;;;;;4.86;100.00;102639.75;5049251;28;20028;-70
2022/12/01 03:34:46;;;;;;;37.42;17.23;;;;;;;4.88;100.00;102644.94;5049272;28;20074;-70
2022/12/01 03:37:36;;;;;;;36.70;15.77;;;;;;;4.88;100.00;102634.38;5049206;28;20048;-70
2022/12/01 03:40:06;;;;;;;35.63;15.68;;;;;;;4.90;100.00;102637.72;5050060;28;20049;-70
2022/12/01 03:42:38;;;;;;;41.80;18.67;;;;;;;4.92;100.00;102635.81;5053217;28;20460;-70
2022/12/01 03:45:13;;;;;;;36.65;17.00;;;;;;;4.90;100.00;102635.94;5053212;28;20032;-70
2022/12/01 03:47:39;;;;;;;43.03;19.63;;;;;;;4.88;100.00;102627.28;5053058;28;20029;-70
2022/12/01 03:50:12;;;;;;;43.95;18.65;;;;;;;4.92;100.00;102633.16;5053162;28;20033;-70
2022/12/01 03:53:03;;;;;;;43.28;19.33;;;;;;;4.92;100.00;102636.63;5053084;28;20029;-70
2022/12/01 03:55:32;;;;;;;36.35;17.88;;;;;;;4.91;100.00;102640.25;5053062;28;20050;-69
2022/12/01 03:58:00;;;;;;;39.45;18.20;;;;;;;4.89;100.00;102641.31;5052512;28;20025;-70
2022/12/01 04:00:27;;;;;;;41.55;19.65;;;;;;;4.85;100.00;102632.78;5052780;28;20426;-70
2022/12/01 04:02:57;;;;;;;43.08;17.98;;;;;;;4.92;100.00;102652.50;5052754;28;20017;-70
2022/12/01 04:05:23;;;;;;;36.67;15.85;;;;;;;4.91;100.00;102648.19;5052301;28;20958;-70
2022/12/01 04:07:49;;;;;;;36.60;17.35;;;;;;;4.91;100.00;102650.81;5052241;28;20029;-70
2022/12/01 04:10:14;;;;;;;33.97;16.35;;;;;;;4.91;100.00;102658.75;5052751;28;20223;-70
2022/12/01 04:12:39;;;;;;;34.15;17.73;;;;;;;4.90;100.00;102654.44;5052687;28;20392;-70
2022/12/01 04:15:08;;;;;;;38.92;17.23;;;;;;;4.89;100.00;102652.75;5052604;28;20476;-70
2022/12/01 04:17:34;;;;;;;34.95;15.38;;;;;;;4.89;100.00;102649.25;5052576;28;20029;-70
2022/12/01 04:20:00;;;;;;;37.10;17.55;;;;;;;4.87;100.00;102649.34;5052466;28;20032;-70
2022/12/01 04:22:26;;;;;;;36.70;18.08;;;;;;;4.87;100.00;102648.53;5052243;28;20451;-70
2022/12/01 04:24:52;;;;;;;36.55;17.80;;;;;;;4.86;100.00;102647.69;5052408;28;20032;-70
2022/12/01 04:27:18;;;;;;;38.95;16.75;;;;;;;4.85;100.00;102656.59;5051922;28;20130;-70
2022/12/01 04:29:44;;;;;;;35.65;16.83;;;;;;;4.84;100.00;102658.38;5052372;28;20116;-70
2022/12/01 04:32:09;;;;;;;39.50;17.95;;;;;;;4.85;100.00;102648.66;5052262;28;20039;-70
2022/12/01 04:34:35;;;;;;;36.28;16.55;;;;;;;4.86;100.00;102645.03;5052270;28;20037;-70
2022/12/01 04:37:00;;;;;;;41.25;18.15;;;;;;;4.86;100.00;102645.03;5052129;28;20503;-70
2022/12/01 04:39:25;;;;;;;34.25;15.55;;;;;;;4.77;100.00;102630.72;5052432;28;20044;-70
2022/12/01 04:41:51;;;;;;;37.55;18.50;;;;;;;4.88;100.00;102648.41;5052100;28;20155;-70
2022/12/01 04:44:16;;;;;;;38.90;17.98;;;;;;;4.87;100.00;102637.94;5052056;28;20122;-70
2022/12/01 04:46:42;;;;;;;39.92;17.48;;;;;;;4.86;100.00;102637.13;5051929;28;20040;-69
2022/12/01 04:49:07;;;;;;;37.67;17.40;;;;;;;4.87;100.00;102645.88;5051252;28;20025;-70
2022/12/01 04:51:33;;;;;;;31.80;16.35;;;;;;;4.87;100.00;102643.22;5050630;28;20044;-69
2022/12/01 04:54:00;;;;;;;35.72;17.20;;;;;;;4.88;100.00;102644.94;5051858;28;20025;-70
2022/12/01 04:56:25;;;;;;;42.05;17.90;;;;;;;4.88;100.00;102639.66;5051801;28;20170;-70
2022/12/01 04:58:51;;;;;;;36.45;15.82;;;;;;;4.87;100.00;102641.44;5050204;28;20119;-70
2022/12/01 05:01:17;;;;;;;37.60;16.42;;;;;;;4.89;100.00;102643.97;5051629;28;20163;-70
2022/12/01 05:03:45;;;;;;;42.47;18.27;;;;;;;4.88;100.00;102640.50;5051578;28;20162;-70
2022/12/01 05:06:17;;;;;;;34.13;15.63;;;;;;;4.89;100.00;102636.88;5051447;28;20077;-69
2022/12/01 05:08:43;;;;;;;40.80;18.92;;;;;;;4.82;100.00;102633.88;5051048;28;20036;-69
2022/12/01 05:11:10;;;;;;;33.97;15.45;;;;;;;4.88;100.00;102645.78;5050106;28;20037;-69
2022/12/01 05:13:38;;;;;;;38.58;17.45;;;;;;;4.82;100.00;102638.28;5051470;28;20029;-69
2022/12/01 05:16:08;;;;;;;36.33;17.00;;;;;;;4.90;100.00;102645.63;5051438;28;20051;-71
2022/12/01 05:18:34;;;;;;;32.83;15.50;;;;;;;4.87;100.00;102644.06;5051337;28;20017;-69
2022/12/01 05:20:59;;;;;;;39.17;17.67;;;;;;;4.86;100.00;102652.97;5051300;28;20519;-69
2022/12/01 05:23:26;;;;;;;34.70;16.08;;;;;;;4.86;100.00;102645.03;5051124;28;20037;-69
2022/12/01 05:25:52;;;;;;;36.13;18.63;;;;;;;4.88;100.00;102650.22;5051239;28;20499;-69
2022/12/01 05:28:17;;;;;;;34.28;18.90;;;;;;;4.88;100.00;102650.22;5050632;28;20049;-69
2022/12/01 05:30:43;;;;;;;37.47;17.63;;;;;;;4.87;100.00;102646.72;5051073;28;20618;-69
2022/12/01 05:33:08;;;;;;;38.10;18.77;;;;;;;4.89;100.00;102646.63;5051219;28;20025;-69
2022/12/01 05:35:34;;;;;;;30.70;15.88;;;;;;;4.89;100.00;102655.38;5051060;28;20028;-69
2022/12/01 05:37:59;;;;;;;34.65;16.42;;;;;;;4.89;100.00;102654.53;5051082;28;20376;-69
2022/12/01 05:40:25;;;;;;;35.40;15.98;;;;;;;4.87;100.00;102651.16;5051038;28;20100;-69
2022/12/01 05:42:51;;;;;;;37.70;18.42;;;;;;;4.88;100.00;102659.00;5050872;28;20106;-69
2022/12/01 05:45:16;;;;;;;34.65;15.20;;;;;;;4.88;100.00;102659.00;5050815;28;20032;-68
2022/12/01 05:47:41;;;;;;;37.53;16.27;;;;;;;4.87;100.00;102659.94;5050742;28;20040;-69
2022/12/01 05:50:07;;;;;;;32.38;17.13;;;;;;;4.88;100.00;102661.63;5050451;28;20031;-68
2022/12/01 05:52:34;;;;;;;29.83;15.15;;;;;;;4.85;100.00;102653.94;5050323;28;20058;-69
2022/12/01 05:54:59;;;;;;;38.90;16.40;;;;;;;4.85;100.00;102653.94;5050707;28;20380;-69
2022/12/01 05:57:25;;;;;;;33.78;16.85;;;;;;;4.85;100.00;102659.22;5050694;28;20025;-69
2022/12/01 05:59:50;;;;;;;39.42;18.38;;;;;;;4.84;100.00;102657.53;5050468;28;20044;-69
2022/12/01 06:02:15;;;;;;;35.35;18.55;;;;;;;4.82;100.00;102660.31;5050279;28;20106;-69
2022/12/01 06:04:41;;;;;;;39.65;17.95;;;;;;;4.78;100.00;102644.78;5050372;28;20044;-69
2022/12/01 06:07:07;;;;;;;36.92;15.43;;;;;;;4.84;100.00;102662.81;5050430;28;20065;-70
2022/12/01 06:09:32;;;;;;;31.15;14.93;;;;;;;4.80;100.00;102658.72;5050052;28;20041;-70
2022/12/01 06:11:57;;;;;;;39.25;16.40;;;;;;;4.81;100.00;102658.59;5048923;28;20025;-70
2022/12/01 06:14:23;;;;;;;31.42;15.00;;;;;;;4.74;100.00;102654.75;5050463;28;20033;-69
2022/12/01 06:16:48;;;;;;;39.47;18.77;;;;;;;4.82;100.00;102665.59;5050357;28;20413;-68
2022/12/01 06:19:13;;;;;;;36.28;15.57;;;;;;;4.80;100.00;102664.00;5050126;28;20032;-68
2022/12/01 06:21:39;;;;;;;35.33;17.02;;;;;;;4.81;100.00;102673.63;5050073;28;20056;-68
2022/12/01 06:24:04;;;;;;;37.03;14.38;;;;;;;4.83;100.00;102680.47;5050059;28;20052;-68
2022/12/01 06:26:30;;;;;;;37.45;14.10;;;;;;;4.81;100.00;102666.53;5049992;28;20057;-68
2022/12/01 06:28:55;;;;;;;34.08;15.68;;;;;;;4.79;100.00;102657.88;5049857;28;20553;-70
2022/12/01 06:31:20;;;;;;;37.25;16.77;;;;;;;4.77;100.00;102659.78;5049892;28;20483;-70
2022/12/01 06:33:46;;;;;;;41.50;18.13;;;;;;;4.79;100.00;102663.19;5050064;28;20492;-70
2022/12/01 06:36:11;;;;;;;39.17;20.55;;;;;;;4.79;100.00;102671.09;5049881;28;20025;-70
2022/12/01 06:38:36;;;;;;;34.40;14.35;;;;;;;4.77;100.00;102664.25;5049405;28;20120;-70
2022/12/01 06:41:03;;;;;;;33.92;17.27;;;;;;;4.78;100.00;102664.13;5049907;28;20033;-70
2022/12/01 06:43:29;;;;;;;39.33;19.77;;;;;;;4.76;100.00;102666.03;5049500;28;20170;-70
2022/12/01 06:45:54;;;;;;;39.25;21.15;;;;;;;4.77;100.00;102674.81;5050224;28;21071;-70
2022/12/01 06:48:19;;;;;;;41.75;17.17;;;;;;;4.77;100.00;102675.66;5051035;28;20496;-70
2022/12/01 06:50:45;;;;;;;32.00;15.73;;;;;;;4.73;100.00;102671.53;5049782;28;20120;-70
2022/12/01 06:53:10;;;;;;;38.45;17.67;;;;;;;4.77;100.00;102685.38;5048157;28;20487;-70
2022/12/01 06:55:37;;;;;;;39.20;17.50;;;;;;;4.75;100.00;102682.84;5049676;28;20062;-70
2022/12/01 06:58:03;;;;;;;34.83;17.55;;;;;;;4.77;100.00;102680.94;5049621;28;20032;-71
2022/12/01 07:00:28;;;;;;;40.83;14.80;;;;;;;4.76;100.00;102688.97;5049598;28;20033;-70
2022/12/01 07:02:54;;;;;;;33.63;16.08;;;;;;;4.77;100.00;102690.69;5049621;28;20071;-70
2022/12/01 07:05:19;;;;;;;36.05;17.55;;;;;;;4.74;100.00;102694.38;5049644;28;20396;-70
2022/12/01 07:07:44;;;;;;;38.55;18.20;;;;;;;4.77;100.00;102699.44;5047887;28;20519;-70
2022/12/01 07:10:11;;;;;;;39.28;17.33;;;;;;;4.77;100.00;102706.53;5048191;28;20115;-71
2022/12/01 07:12:37;;;;;;;40.67;16.73;;;;;;;4.74;100.00;102707.59;5048191;28;20064;-70
2022/12/01 07:15:04;;;;;;;38.55;16.35;;;;;;;4.72;100.00;102698.94;5048711;28;20064;-70
2022/12/01 07:17:29;;;;;;;51.15;19.90;;;;;;;4.76;100.00;102702.19;5049399;28;20495;-70
2022/12/01 07:19:55;;;;;;;42.70;21.15;;;;;;;4.77;100.00;102706.53;5048280;28;20040;-70
2022/12/01 07:22:20;;;;;;;40.28;18.70;;;;;;;4.74;100.00;102710.25;5047673;28;20116;-70
2022/12/01 07:24:46;;;;;;;38.83;18.40;;;;;;;4.75;100.00;102708.44;5049423;28;20037;-69
2022/12/01 07:27:11;;;;;;;39.67;17.10;;;;;;;4.68;100.00;102693.97;5049227;28;20053;-69
2022/12/01 07:29:36;;;;;;;37.80;17.80;;;;;;;4.70;100.00;102703.47;5047559;28;20059;-69
2022/12/01 07:32:02;;;;;;;37.15;17.05;;;;;;;4.74;100.00;102717.31;5048899;28;20063;-69
2022/12/01 07:34:27;;;;;;;40.00;16.30;;;;;;;4.73;100.00;102715.63;5049297;28;20039;-69
2022/12/01 07:36:52;;;;;;;40.45;21.00;;;;;;;4.64;100.00;102708.38;5049323;28;20159;-69
2022/12/01 07:39:18;;;;;;;34.22;17.05;;;;;;;4.70;100.00;102716.69;5049188;28;20167;-69
2022/12/01 07:41:43;;;;;;;40.33;17.13;;;;;;;4.67;100.00;102714.28;5048956;28;20094;-69
2022/12/01 07:44:09;;;;;;;47.10;20.25;;;;;;;4.68;100.00;102710.69;5049139;28;20029;-69
2022/12/01 07:46:35;;;;;;;36.85;17.17;;;;;;;4.67;100.00;102710.81;5049098;28;20040;-71
2022/12/01 07:49:04;;;;;;;41.17;20.00;;;;;;;4.67;100.00;102722.22;5031193;28;20491;-70
2022/12/01 07:51:30;;;;;;;40.78;17.77;;;;;;;4.70;100.00;102721.16;5048929;28;20025;-69
2022/12/01 07:53:55;;;;;;;40.50;17.73;;;;;;;4.73;100.00;102718.28;5047634;28;20037;-70
2022/12/01 07:56:22;;;;;;;35.40;19.25;;;;;;;4.72;100.00;102717.44;5048913;28;20037;-70
2022/12/01 07:58:48;;;;;;;40.83;19.05;;;;;;;4.71;100.00;102715.72;5048945;28;20100;-69
2022/12/01 08:01:19;;;;;;;39.17;15.65;;;;;;;4.73;100.00;102721.75;5048968;28;20128;-69
2022/12/01 08:03:46;;;;;;;38.15;19.25;;;;;;;4.76;100.00;102723.34;5049136;28;20025;-70
2022/12/01 08:06:11;;;;;;;43.10;18.77;;;;;;;4.73;100.00;102721.75;5048957;28;20033;-69
2022/12/01 08:08:39;;;;;;;38.20;17.40;;;;;;;4.77;100.00;102733.81;5047414;28;20044;-69
2022/12/01 08:11:09;;;;;;;42.58;20.75;;;;;;;4.77;100.00;102728.53;5048820;28;20029;-69
2022/12/01 08:13:34;;;;;;;40.17;18.83;;;;;;;4.80;100.00;102732.75;5048807;28;20135;-69
2022/12/01 08:16:04;;;;;;;39.17;17.92;;;;;;;4.82;100.00;102736.97;5048145;28;20112;-69
2022/12/01 08:18:29;;;;;;;37.88;19.30;;;;;;;4.80;100.00;102738.03;5047607;28;20037;-69
2022/12/01 08:20:56;;;;;;;40.97;20.80;;;;;;;4.84;100.00;102739.47;5048898;28;20498;-69
2022/12/01 08:23:22;;;;;;;38.63;17.98;;;;;;;4.88;100.00;102730.38;5048486;28;20037;-69
2022/12/01 08:25:47;;;;;;;38.40;17.35;;;;;;;4.88;100.00;102729.53;5049473;28;20031;-68
2022/12/01 08:28:13;;;;;;;41.08;20.23;;;;;;;4.94;100.00;102737.84;5052018;28;20459;-69
2022/12/01 08:30:38;;;;;;;40.95;18.55;;;;;;;4.97;100.00;102734.97;5051848;28;20125;-69
2022/12/01 08:33:03;;;;;;;35.33;18.48;;;;;;;5.04;100.00;102735.38;5052234;28;20064;-69
2022/12/01 08:35:29;;;;;;;33.78;15.07;;;;;;;5.02;100.00;102734.63;5049017;28;20171;-69
2022/12/01 08:37:54;;;;;;;35.75;15.80;;;;;;;5.07;100.00;102744.88;5045292;28;20543;-70
2022/12/01 08:40:20;;;;;;;33.00;16.67;;;;;;;5.05;100.00;102737.88;5046272;28;20033;-69
2022/12/01 08:42:46;;;;;;;36.13;15.57;;;;;;;5.09;100.00;102743.81;5046315;28;20084;-68
2022/12/01 08:45:11;;;;;;;37.25;16.75;;;;;;;5.07;100.00;102747.53;5045975;28;20121;-70
2022/12/01 08:47:36;;;;;;;36.00;17.00;;;;;;;5.08;100.00;102742.09;5045768;28;20033;-70
2022/12/01 08:50:03;;;;;;;37.58;18.88;;;;;;;4.98;100.00;102730.56;5044376;28;20520;-69
2022/12/01 08:52:32;;;;;;;35.05;17.50;;;;;;;4.98;100.00;102738.47;5047577;28;20037;-69
2022/12/01 08:54:58;;;;;;;39.30;17.52;;;;;;;4.96;100.00;102758.91;5051345;28;20028;-79
2022/12/01 08:57:23;;;;;;;34.80;18.15;;;;;;;4.96;100.00;102751.81;5051710;28;20044;-78
2022/12/01 08:59:49;;;;;;;37.15;17.80;;;;;;;4.97;100.00;102753.47;5051993;28;20056;-79
2022/12/01 09:02:17;;;;;;;36.40;17.60;;;;;;;4.97;100.00;102750.00;5051823;28;20021;-71
2022/12/01 09:04:43;;;;;;;39.00;17.80;;;;;;;4.88;100.00;102742.75;5051832;28;20062;-69
2022/12/01 09:07:15;;;;;;;39.75;19.30;;;;;;;4.92;100.00;102752.97;5051597;28;20033;-69
2022/12/01 09:09:41;;;;;;;37.35;16.98;;;;;;;4.89;100.00;102749.72;5051139;28;20033;-69
2022/12/01 09:12:07;;;;;;;35.38;18.05;;;;;;;4.85;100.00;102754.41;5051451;28;20099;-69
2022/12/01 09:14:37;;;;;;;37.30;18.05;;;;;;;4.82;100.00;102750.19;5051554;28;20070;-69
2022/12/01 09:17:03;;;;;;;43.47;19.95;;;;;;;4.77;100.00;102747.03;5051286;28;20035;-70
2022/12/01 09:19:29;;;;;;;36.17;19.10;;;;;;;4.80;100.00;102748.59;5051439;28;20029;-70
2022/12/01 09:21:55;;;;;;;36.90;17.83;;;;;;;4.80;100.00;102745.97;5051501;28;20037;-70
2022/12/01 09:24:21;;;;;;;37.90;17.95;;;;;;;4.80;100.00;102762.66;5051291;28;20052;-71
2022/12/01 09:26:46;;;;;;;47.78;20.77;;;;;;;4.77;100.00;102757.59;5051068;28;20143;-70
2022/12/01 09:29:13;;;;;;;41.75;20.08;;;;;;;4.75;100.00;102756.84;5044580;28;20469;-69
2022/12/01 09:31:40;;;;;;;38.58;20.15;;;;;;;4.72;100.00;102756.25;5046942;28;20567;-69
2022/12/01 09:34:09;;;;;;;45.45;21.23;;;;;;;4.65;100.00;102763.75;5051158;28;20028;-69
2022/12/01 09:36:36;;;;;;;44.92;19.85;;;;;;;4.63;100.00;102765.66;5050944;28;20151;-69
2022/12/01 09:39:02;;;;;;;42.50;20.02;;;;;;;4.61;100.00;102765.78;5050536;28;20025;-69
2022/12/01 09:41:30;;;;;;;37.20;17.95;;;;;;;4.58;100.00;102765.16;5050996;28;20037;-69
2022/12/01 09:44:16;;;;;;;44.13;17.02;;;;;;;4.57;100.00;102766.13;5050921;28;20440;-69
2022/12/01 09:47:17;;;;;;;38.35;18.52;;;;;;;4.47;100.00;102755.34;5050859;28;20032;-68
2022/12/01 09:49:58;;;;;;;43.85;21.13;;;;;;;4.61;100.00;102765.78;5049887;28;20495;-69
2022/12/01 09:52:26;;;;;;;41.92;19.77;;;;;;;4.67;100.00;102766.31;5050846;28;20033;-69
2022/12/01 09:54:54;;;;;;;46.90;21.95;;;;;;;4.74;100.00;102756.97;5050751;28;20099;-68
2022/12/01 09:57:37;;;;;;;44.78;19.83;;;;;;;4.76;100.00;102744.47;5050305;28;20091;-69
2022/12/01 10:00:28;;;;;;;44.55;20.17;;;;;;;4.89;100.00;102753.19;5050396;28;20032;-69
2022/12/01 10:02:56;;;;;;;46.00;19.08;;;;;;;5.02;100.00;102759.28;5050572;28;20037;-69
2022/12/01 10:05:35;;;;;;;44.30;20.02;;;;;;;5.11;100.00;102747.19;5050427;28;20376;-69
2022/12/01 10:08:11;;;;;;;40.90;18.42;;;;;;;5.21;100.00;102753.50;5048787;28;20090;-69
2022/12/01 10:10:43;;;;;;;41.53;20.70;;;;;;;5.28;100.00;102744.09;5050080;28;20028;-69
2022/12/01 10:13:21;;;;;;;47.67;22.60;;;;;;;5.40;100.00;102745.00;5049583;28;20083;-69
2022/12/01 10:15:52;;;;;;;47.17;20.30;;;;;;;5.50;100.00;102747.78;5050167;28;20024;-69
2022/12/01 10:18:39;;;;;;;41.80;19.52;;;;;;;5.65;100.00;102743.13;5050212;28;20083;-68
2022/12/01 10:21:09;;;;;;;39.28;18.48;;;;;;;5.72;100.00;102747.84;5050248;28;20625;-69
2022/12/01 10:23:53;;;;;;;42.90;18.57;;;;;;;5.79;100.00;102742.94;5050093;28;20025;-69
2022/12/01 10:27:00;;;;;;;39.92;18.30;;;;;;;5.83;100.00;102743.53;5049954;28;20029;-69
2022/12/01 10:29:40;;;;;;;42.45;21.73;;;;;;;5.88;100.00;102736.91;5049632;28;20448;-69
2022/12/01 10:32:13;;;;;;;41.80;17.85;;;;;;;5.90;100.00;102731.50;5050360;28;20039;-70
2022/12/01 10:34:42;;;;;;;42.25;17.92;;;;;;;5.97;100.00;102731.88;5050121;28;20029;-69
2022/12/01 10:37:20;;;;;;;39.22;17.02;;;;;;;6.02;100.00;102724.41;5049742;28;20036;-70
2022/12/01 10:39:49;;;;;;;36.05;19.02;;;;;;;6.05;100.00;102729.47;5049962;28;21010;-70
2022/12/01 10:42:14;;;;;;;35.53;16.17;;;;;;;6.15;100.00;102720.66;5048574;28;20829;-69
2022/12/01 10:44:41;;;;;;;39.38;17.20;;;;;;;6.27;100.00;102720.69;5048398;28;20043;-70
2022/12/01 10:47:18;;;;;;;41.25;16.75;;;;;;;6.28;100.00;102717.06;5049702;28;20036;-70
2022/12/01 10:49:44;;;;;;;31.92;14.70;;;;;;;6.25;100.00;102720.78;5048157;28;20033;-69
2022/12/01 10:52:36;;;;;;;38.13;16.13;;;;;;;6.30;100.00;102720.44;5049707;28;20032;-69
2022/12/01 10:55:23;;;;;;;36.30;17.50;;;;;;;6.31;100.00;102714.16;5049392;28;20028;-69
2022/12/01 10:57:50;;;;;;;40.08;18.60;;;;;;;6.32;100.00;102714.03;5050290;28;20044;-69
2022/12/01 11:00:27;;;;;;;30.13;14.60;;;;;;;6.36;100.00;102711.97;5050120;28;20502;-69
2022/12/01 11:02:53;;;;;;;34.40;14.88;;;;;;;6.33;100.00;102714.88;5048207;28;20028;-70
2022/12/01 11:05:24;;;;;;;35.13;17.25;;;;;;;6.35;100.00;102716.44;5049125;28;20024;-71
2022/12/01 11:07:51;;;;;;;32.33;13.77;;;;;;;6.31;100.00;102706.22;5049412;28;20083;-72
2022/12/01 11:10:25;;;;;;;36.90;15.05;;;;;;;6.29;100.00;102724.06;5049427;28;20444;-70
2022/12/01 11:12:56;;;;;;;33.45;16.48;;;;;;;6.24;100.00;102708.53;5049452;28;20043;-71
2022/12/01 11:15:27;;;;;;;33.13;18.05;;;;;;;6.29;100.00;102708.16;5049350;28;20074;-70
2022/12/01 11:18:36;;;;;;;41.22;19.25;;;;;;;6.26;99.75;102703.94;5049383;28;20114;-71